Time;durP1;ratioP1;P1;durP2;ratioP2;P2;SDS_P1;SDS_P2;PMS_P1;PMS_P2;Temp;Humidity;BMP_temperature;BMP_pressure;BME280_temperature;BME280_humidity;BME280_pressure;Samples;Min_cycle;Max_cycle;Signal;HPM_P1;HPM_P2
2021/01/21 00:00:34;;;;;;;5.70;4.82;;;6.40;76.70;;;;;;5093903;28;20284;-80
2021/01/21 00:03:01;;;;;;;4.88;4.47;;;6.40;76.90;;;;;;5093293;28;20586;-80
2021/01/21 00:05:28;;;;;;;7.00;5.63;;;6.40;77.30;;;;;;5093379;28;20203;-80
2021/01/21 00:07:56;;;;;;;7.32;6.45;;;6.30;76.90;;;;;;5088399;28;20241;-80
2021/01/21 00:10:23;;;;;;;6.38;5.68;;;6.20;77.20;;;;;;5075260;28;20199;-81
2021/01/21 00:12:52;;;;;;;7.45;5.50;;;5.90;77.30;;;;;;5089793;28;20226;-80
2021/01/21 00:15:19;;;;;;;7.30;6.25;;;5.70;78.20;;;;;;5076046;28;20199;-80
2021/01/21 00:17:46;;;;;;;8.43;7.00;;;5.60;79.30;;;;;;5076532;28;20218;-81
2021/01/21 00:20:14;;;;;;;9.85;7.05;;;5.70;80.10;;;;;;5073819;28;20211;-80
2021/01/21 00:22:41;;;;;;;8.82;6.22;;;5.80;80.40;;;;;;5088600;28;20202;-80
2021/01/21 00:25:10;;;;;;;7.45;6.35;;;5.70;80.60;;;;;;5092559;28;20207;-79
2021/01/21 00:27:36;;;;;;;7.90;6.68;;;5.90;80.30;;;;;;5084723;28;20201;-80
2021/01/21 00:30:07;;;;;;;7.72;6.45;;;5.90;80.10;;;;;;5079549;28;20206;-80
2021/01/21 00:32:33;;;;;;;10.07;7.28;;;5.80;80.00;;;;;;5091105;28;20220;-80
2021/01/21 00:35:00;;;;;;;7.25;6.25;;;5.80;80.70;;;;;;5088910;28;20218;-81
2021/01/21 00:37:26;;;;;;;8.27;6.38;;;5.80;81.70;;;;;;5093115;28;20642;-80
2021/01/21 00:39:52;;;;;;;7.82;6.40;;;5.70;81.60;;;;;;5090758;28;20194;-80
2021/01/21 00:42:19;;;;;;;9.60;7.65;;;5.60;81.70;;;;;;5075885;28;20210;-81
2021/01/21 00:44:45;;;;;;;6.63;5.93;;;5.60;82.20;;;;;;5077443;28;20431;-81
2021/01/21 00:47:13;;;;;;;6.25;4.75;;;5.50;81.60;;;;;;5072612;28;20207;-79
2021/01/21 00:49:39;;;;;;;5.53;4.45;;;5.40;80.40;;;;;;5072536;28;20206;-80
2021/01/21 00:52:06;;;;;;;4.45;4.13;;;5.50;81.00;;;;;;5074093;28;20238;-80
2021/01/21 00:54:32;;;;;;;4.43;4.03;;;5.60;80.70;;;;;;5073420;28;20625;-80
2021/01/21 00:56:58;;;;;;;4.63;3.58;;;5.70;79.10;;;;;;5073153;28;20195;-80
2021/01/21 00:59:25;;;;;;;4.07;3.60;;;5.70;79.30;;;;;;5073956;28;20203;-80
2021/01/21 01:01:51;;;;;;;3.42;3.13;;;5.70;80.40;;;;;;5073514;28;20265;-80
2021/01/21 01:04:19;;;;;;;3.63;3.20;;;5.80;81.10;;;;;;5073385;28;20203;-80
2021/01/21 01:06:45;;;;;;;3.10;2.80;;;5.80;81.20;;;;;;5073437;28;20253;-80
2021/01/21 01:09:12;;;;;;;3.60;3.00;;;5.80;80.50;;;;;;5072931;28;20214;-80
2021/01/21 01:11:38;;;;;;;4.00;2.80;;;5.80;81.40;;;;;;5073264;28;20204;-80
2021/01/21 01:14:04;;;;;;;2.95;2.67;;;5.80;81.60;;;;;;5072747;28;20227;-80
2021/01/21 01:16:31;;;;;;;3.80;2.45;;;5.90;81.00;;;;;;5072132;28;20195;-80
2021/01/21 01:18:57;;;;;;;2.72;2.10;;;6.00;79.80;;;;;;5071899;28;20203;-80
2021/01/21 01:21:24;;;;;;;2.75;2.50;;;6.00;78.40;;;;;;5072023;28;20207;-80
2021/01/21 01:23:51;;;;;;;2.53;2.33;;;6.00;77.90;;;;;;5072140;28;20199;-81
2021/01/21 01:26:20;;;;;;;2.53;2.22;;;6.00;77.00;;;;;;5072023;28;20207;-80
2021/01/21 01:28:46;;;;;;;2.40;2.05;;;6.00;76.60;;;;;;5082909;28;20273;-80
2021/01/21 01:31:12;;;;;;;2.33;1.80;;;6.00;75.60;;;;;;5072682;28;20241;-81
2021/01/21 01:33:39;;;;;;;3.10;2.60;;;6.10;75.60;;;;;;5081438;28;20210;-80
2021/01/21 01:36:06;;;;;;;2.53;2.33;;;6.10;75.10;;;;;;5090422;28;20660;-81
2021/01/21 01:38:33;;;;;;;3.35;1.63;;;6.10;74.40;;;;;;5081754;28;20234;-80
2021/01/21 01:41:00;;;;;;;2.25;2.05;;;6.10;73.30;;;;;;5092602;28;20236;-80
2021/01/21 01:43:26;;;;;;;2.35;1.70;;;6.20;73.70;;;;;;5090256;28;20217;-80
2021/01/21 01:45:53;;;;;;;2.97;1.90;;;6.20;72.60;;;;;;5086397;28;20207;-80
2021/01/21 01:48:20;;;;;;;1.70;1.50;;;6.20;71.80;;;;;;5078887;28;20229;-80
2021/01/21 01:50:46;;;;;;;2.25;2.00;;;6.30;72.60;;;;;;5087518;28;20227;-80
2021/01/21 01:53:13;;;;;;;2.75;2.05;;;6.40;72.50;;;;;;5076884;28;20240;-80
2021/01/21 01:55:41;;;;;;;1.60;1.50;;;6.40;72.60;;;;;;5088321;28;20207;-80
2021/01/21 01:58:09;;;;;;;1.70;1.60;;;6.30;71.80;;;;;;5071236;28;20245;-80
2021/01/21 02:00:36;;;;;;;2.28;1.80;;;6.40;72.20;;;;;;5071635;28;20199;-80
2021/01/21 02:03:04;;;;;;;2.17;1.83;;;6.40;71.70;;;;;;5071759;28;20211;-80
2021/01/21 02:05:33;;;;;;;1.95;1.70;;;6.40;71.10;;;;;;5071521;28;20280;-80
2021/01/21 02:08:01;;;;;;;1.63;1.52;;;6.60;72.20;;;;;;5071993;28;20202;-81
2021/01/21 02:10:35;;;;;;;2.75;2.25;;;6.60;71.80;;;;;;5072850;28;20252;-81
2021/01/21 02:13:38;;;;;;;2.15;1.50;;;6.60;71.90;;;;;;5072832;28;20194;-80
2021/01/21 02:16:23;;;;;;;2.63;1.60;;;6.70;71.40;;;;;;5072734;28;20639;-80
2021/01/21 02:19:04;;;;;;;1.60;1.50;;;6.70;71.70;;;;;;5072245;28;20594;-80
2021/01/21 02:22:16;;;;;;;2.00;1.60;;;6.70;70.50;;;;;;5072571;28;20202;-80
2021/01/21 02:25:04;;;;;;;1.70;1.60;;;6.70;71.10;;;;;;5061187;28;20207;-79
2021/01/21 02:28:02;;;;;;;2.13;1.70;;;6.80;72.60;;;;;;5070763;28;20623;-81
2021/01/21 02:30:45;;;;;;;1.60;1.50;;;6.90;72.30;;;;;;5070271;28;20203;-80
2021/01/21 02:33:24;;;;;;;1.65;1.55;;;6.70;73.00;;;;;;5072582;28;20207;-80
2021/01/21 02:35:53;;;;;;;2.05;1.85;;;6.80;73.30;;;;;;5076983;28;20220;-80
2021/01/21 02:38:22;;;;;;;1.60;1.50;;;6.90;72.30;;;;;;5082681;28;20199;-81
2021/01/21 02:40:50;;;;;;;1.52;1.42;;;6.80;73.20;;;;;;5072523;28;20266;-81
2021/01/21 02:43:19;;;;;;;2.03;1.80;;;6.70;74.80;;;;;;5077137;28;20338;-81
2021/01/21 02:45:46;;;;;;;2.40;2.20;;;6.50;74.30;;;;;;5083307;28;20206;-81
2021/01/21 02:48:19;;;;;;;2.25;1.55;;;6.60;76.00;;;;;;5078445;28;20248;-81
2021/01/21 02:50:46;;;;;;;1.63;1.52;;;6.70;74.60;;;;;;5089062;28;20204;-81
2021/01/21 02:53:16;;;;;;;1.65;1.52;;;6.80;73.40;;;;;;5086505;28;20657;-81
2021/01/21 02:55:56;;;;;;;2.08;1.83;;;6.90;72.30;;;;;;5080626;28;20234;-81
2021/01/21 02:58:31;;;;;;;1.73;1.63;;;6.90;70.60;;;;;;5083802;28;20727;-81
2021/01/21 03:01:01;;;;;;;1.42;1.08;;;6.90;71.90;;;;;;5083755;28;20635;-81
2021/01/21 03:03:29;;;;;;;1.48;1.38;;;6.90;72.00;;;;;;5088539;28;20259;-81
2021/01/21 03:05:58;;;;;;;1.95;1.73;;;7.00;71.30;;;;;;5082280;28;20187;-81
2021/01/21 03:08:27;;;;;;;1.25;1.13;;;6.90;70.80;;;;;;5088726;28;20203;-81
2021/01/21 03:11:07;;;;;;;1.42;1.30;;;7.00;70.60;;;;;;5095392;28;20203;-81
2021/01/21 03:13:33;;;;;;;6.30;1.30;;;7.10;70.40;;;;;;5093213;28;20210;-81
2021/01/21 03:16:00;;;;;;;1.50;1.40;;;7.00;69.50;;;;;;5092630;28;20203;-81
2021/01/21 03:18:26;;;;;;;2.38;1.50;;;7.00;69.50;;;;;;5090540;28;20206;-81
2021/01/21 03:20:52;;;;;;;2.05;1.40;;;7.10;67.90;;;;;;5089397;28;20243;-81
2021/01/21 03:23:19;;;;;;;1.75;1.25;;;7.10;67.20;;;;;;5079962;28;20195;-81
2021/01/21 03:25:46;;;;;;;1.58;1.48;;;7.20;65.90;;;;;;5094850;28;20210;-80
2021/01/21 03:28:13;;;;;;;1.00;1.00;;;7.30;65.60;;;;;;5078990;28;20195;-81
2021/01/21 03:30:39;;;;;;;1.15;0.95;;;7.20;66.10;;;;;;5074894;28;20257;-81
2021/01/21 03:33:06;;;;;;;1.75;1.65;;;7.30;65.80;;;;;;5087579;28;20198;-81
2021/01/21 03:35:32;;;;;;;1.08;1.05;;;7.30;64.40;;;;;;5093853;28;20556;-81
2021/01/21 03:37:58;;;;;;;1.73;1.13;;;7.40;64.90;;;;;;5093086;28;20248;-81
2021/01/21 03:40:25;;;;;;;1.95;1.75;;;7.60;66.60;;;;;;5094614;28;20191;-81
2021/01/21 03:42:52;;;;;;;1.70;1.60;;;7.60;66.90;;;;;;5093166;28;20198;-81
2021/01/21 03:45:19;;;;;;;1.45;1.33;;;7.60;66.80;;;;;;5074333;28;20199;-81
2021/01/21 03:47:45;;;;;;;2.67;1.50;;;7.50;65.60;;;;;;5073699;28;20203;-81
2021/01/21 03:50:13;;;;;;;1.17;1.08;;;7.40;66.90;;;;;;5072958;28;20207;-81
2021/01/21 03:52:39;;;;;;;1.48;1.30;;;7.50;67.20;;;;;;5083865;28;20675;-81
2021/01/21 03:55:07;;;;;;;1.33;1.23;;;7.60;67.20;;;;;;5086713;28;20219;-81
2021/01/21 03:57:33;;;;;;;2.08;1.27;;;7.40;66.40;;;;;;5077072;28;20807;-81
2021/01/21 04:00:00;;;;;;;1.75;1.35;;;7.30;66.50;;;;;;5076245;28;20218;-81
2021/01/21 04:02:27;;;;;;;2.75;1.50;;;7.30;66.30;;;;;;5094262;28;20214;-81
2021/01/21 04:04:53;;;;;;;1.23;1.00;;;7.30;66.90;;;;;;5074495;28;20199;-81
2021/01/21 04:07:19;;;;;;;1.13;1.02;;;7.30;67.10;;;;;;5086956;28;20198;-81
2021/01/21 04:09:46;;;;;;;1.58;1.00;;;7.30;67.70;;;;;;5086992;28;20198;-81
2021/01/21 04:12:12;;;;;;;1.25;1.25;;;7.40;67.20;;;;;;5080416;28;20218;-81
2021/01/21 04:14:38;;;;;;;1.40;1.30;;;7.30;67.40;;;;;;5090744;28;20214;-81
2021/01/21 04:17:06;;;;;;;1.40;1.20;;;7.30;67.70;;;;;;5075157;28;20230;-81
2021/01/21 04:19:32;;;;;;;1.30;1.20;;;7.40;67.90;;;;;;5092571;28;20271;-81
2021/01/21 04:21:58;;;;;;;1.15;1.10;;;7.20;66.70;;;;;;5093269;28;20241;-81
2021/01/21 04:24:25;;;;;;;1.40;1.30;;;7.20;67.50;;;;;;5092310;28;20198;-81
2021/01/21 04:26:51;;;;;;;1.10;1.00;;;7.20;66.50;;;;;;5080127;28;20846;-81
2021/01/21 04:29:18;;;;;;;1.27;1.17;;;7.20;67.10;;;;;;5077864;28;20230;-81
2021/01/21 04:31:44;;;;;;;1.27;1.08;;;7.30;66.80;;;;;;5085786;28;20203;-81
2021/01/21 04:34:11;;;;;;;1.00;0.90;;;7.30;66.30;;;;;;5089008;28;20257;-81
2021/01/21 04:36:38;;;;;;;2.42;1.50;;;7.30;66.60;;;;;;5091938;28;20203;-81
2021/01/21 04:39:05;;;;;;;1.20;1.10;;;7.30;66.20;;;;;;5082525;28;20206;-81
2021/01/21 04:41:31;;;;;;;1.70;1.58;;;7.30;66.50;;;;;;5073218;28;20261;-81
2021/01/21 04:43:58;;;;;;;2.33;1.38;;;7.40;67.10;;;;;;5084635;28;20230;-81
2021/01/21 04:46:24;;;;;;;2.85;1.10;;;7.40;67.50;;;;;;5093098;28;20202;-81
2021/01/21 04:48:52;;;;;;;2.10;1.90;;;7.50;66.40;;;;;;5079893;28;20238;-81
2021/01/21 04:51:20;;;;;;;1.75;1.63;;;7.60;66.30;;;;;;5081791;28;20661;-81
2021/01/21 04:53:50;;;;;;;1.65;1.55;;;7.60;66.80;;;;;;5079151;28;20207;-81
2021/01/21 04:56:25;;;;;;;1.33;1.13;;;7.60;66.20;;;;;;5093211;28;20725;-81
2021/01/21 04:58:54;;;;;;;1.13;1.02;;;7.50;65.20;;;;;;5091478;28;20259;-81
2021/01/21 05:01:21;;;;;;;1.30;1.20;;;7.50;66.10;;;;;;5093007;28;20218;-82
2021/01/21 05:03:49;;;;;;;1.20;1.02;;;7.60;66.20;;;;;;5091335;28;20218;-81
2021/01/21 05:06:15;;;;;;;0.95;0.88;;;7.60;66.20;;;;;;5077654;28;20246;-81
2021/01/21 05:08:43;;;;;;;1.73;1.17;;;7.60;65.20;;;;;;5077301;28;20210;-81
2021/01/21 05:11:10;;;;;;;1.80;1.30;;;7.60;64.80;;;;;;5087433;28;20206;-81
2021/01/21 05:13:36;;;;;;;1.33;1.15;;;7.70;64.40;;;;;;5084192;28;20246;-81
2021/01/21 05:16:03;;;;;;;1.20;1.10;;;7.80;64.20;;;;;;5082740;28;20195;-82
2021/01/21 05:18:32;;;;;;;1.35;0.98;;;7.80;64.30;;;;;;5080718;28;20229;-81
2021/01/21 05:21:00;;;;;;;1.33;0.93;;;7.80;64.40;;;;;;5079147;28;20630;-81
2021/01/21 05:23:28;;;;;;;1.55;1.45;;;7.70;64.70;;;;;;5079554;28;20234;-82
2021/01/21 05:25:56;;;;;;;1.65;1.20;;;7.80;65.00;;;;;;5091843;28;20429;-81
2021/01/21 05:28:24;;;;;;;0.95;0.90;;;7.90;65.80;;;;;;5081242;28;20664;-81
2021/01/21 05:30:51;;;;;;;1.45;1.15;;;7.80;65.40;;;;;;5073012;28;20195;-81
2021/01/21 05:33:19;;;;;;;1.05;0.95;;;7.80;64.10;;;;;;5077447;28;20198;-82
2021/01/21 05:35:48;;;;;;;1.95;0.90;;;7.80;65.30;;;;;;5089093;28;20195;-81
2021/01/21 05:38:14;;;;;;;1.48;1.38;;;7.80;65.10;;;;;;5078152;28;20211;-81
2021/01/21 05:40:45;;;;;;;4.63;1.30;;;7.80;64.20;;;;;;5076869;28;20660;-81
2021/01/21 05:43:14;;;;;;;1.10;1.00;;;7.90;63.90;;;;;;5091753;28;20230;-81
2021/01/21 05:45:44;;;;;;;1.50;1.35;;;8.00;63.60;;;;;;5091401;28;20195;-81
2021/01/21 05:48:12;;;;;;;2.13;1.15;;;8.00;64.90;;;;;;5085699;28;20199;-81
2021/01/21 05:50:40;;;;;;;2.80;1.30;;;8.00;64.70;;;;;;5075352;28;20244;-81
2021/01/21 05:53:07;;;;;;;1.52;0.90;;;8.00;65.20;;;;;;5081361;28;20199;-81
2021/01/21 05:55:36;;;;;;;2.00;1.10;;;8.00;64.80;;;;;;5078334;28;20219;-81
2021/01/21 05:58:03;;;;;;;2.58;1.40;;;8.00;64.10;;;;;;5074596;28;20203;-81
2021/01/21 06:00:32;;;;;;;1.63;1.10;;;8.00;64.20;;;;;;5076485;28;20211;-81
2021/01/21 06:03:00;;;;;;;1.25;1.15;;;8.00;64.90;;;;;;5078097;28;20246;-82
2021/01/21 06:05:27;;;;;;;1.42;1.33;;;8.00;65.00;;;;;;5074665;28;20672;-82
2021/01/21 06:07:53;;;;;;;1.27;1.17;;;8.00;64.50;;;;;;5073852;28;20195;-83
2021/01/21 06:10:22;;;;;;;0.70;0.70;;;7.90;64.10;;;;;;5090371;28;20202;-82
2021/01/21 06:12:49;;;;;;;1.55;1.30;;;7.90;63.80;;;;;;5082045;28;20590;-82
2021/01/21 06:15:17;;;;;;;1.02;0.98;;;8.00;64.90;;;;;;5089575;28;20560;-83
2021/01/21 06:17:46;;;;;;;1.40;1.10;;;8.10;64.90;;;;;;5086470;28;20610;-83
2021/01/21 06:20:14;;;;;;;0.90;0.90;;;8.00;63.80;;;;;;5073112;28;20207;-82
2021/01/21 06:22:42;;;;;;;1.30;1.10;;;8.00;63.80;;;;;;5078002;28;20700;-82
2021/01/21 06:25:12;;;;;;;0.85;0.85;;;8.00;64.30;;;;;;5071992;28;20218;-83
2021/01/21 06:27:41;;;;;;;0.95;0.95;;;8.00;63.60;;;;;;5087360;28;20199;-83
2021/01/21 06:30:11;;;;;;;1.50;1.30;;;8.00;63.60;;;;;;5075244;28;20203;-83
2021/01/21 06:32:49;;;;;;;1.33;1.20;;;8.00;63.80;;;;;;5091152;28;20191;-83
2021/01/21 06:35:20;;;;;;;2.15;1.13;;;8.10;63.60;;;;;;5086051;28;20597;-82
2021/01/21 06:37:51;;;;;;;1.65;1.10;;;8.10;62.50;;;;;;5091315;28;20259;-83
2021/01/21 06:40:21;;;;;;;1.02;0.90;;;8.20;62.30;;;;;;5075773;28;20207;-83
2021/01/21 06:42:58;;;;;;;2.85;0.90;;;8.20;62.10;;;;;;5079981;28;20198;-82
2021/01/21 06:45:25;;;;;;;1.40;1.10;;;8.20;62.10;;;;;;5094353;28;20232;-83
2021/01/21 06:47:54;;;;;;;1.25;1.15;;;8.20;62.90;;;;;;5086535;28;20199;-83
2021/01/21 06:50:21;;;;;;;1.10;1.00;;;8.30;61.80;;;;;;5089897;28;20620;-83
2021/01/21 06:52:49;;;;;;;1.40;1.10;;;8.30;63.60;;;;;;5082080;28;20778;-82
2021/01/21 06:55:15;;;;;;;0.90;0.90;;;8.30;63.70;;;;;;5090651;28;20657;-83
2021/01/21 06:57:45;;;;;;;1.88;1.23;;;8.40;64.20;;;;;;5093548;28;20213;-82
2021/01/21 07:00:17;;;;;;;2.40;1.10;;;8.30;63.90;;;;;;5075205;28;20218;-83
2021/01/21 07:02:50;;;;;;;1.50;1.10;;;8.30;64.70;;;;;;5073827;28;20734;-82
2021/01/21 07:05:19;;;;;;;2.53;1.45;;;8.40;64.60;;;;;;5074284;28;20578;-83
2021/01/21 07:08:07;;;;;;;2.10;1.25;;;8.40;65.80;;;;;;5073759;28;20210;-83
2021/01/21 07:10:37;;;;;;;0.77;0.75;;;8.40;67.40;;;;;;5074259;28;20206;-83
2021/01/21 07:13:05;;;;;;;1.10;0.98;;;8.50;68.50;;;;;;5074586;28;20211;-83
2021/01/21 07:15:40;;;;;;;1.02;1.02;;;8.50;69.40;;;;;;5082084;28;20223;-83
2021/01/21 07:18:07;;;;;;;1.08;1.00;;;8.50;69.60;;;;;;5074239;28;20295;-83
2021/01/21 07:20:36;;;;;;;2.40;0.98;;;8.50;71.00;;;;;;5075912;28;20210;-83
2021/01/21 07:23:08;;;;;;;1.85;1.35;;;8.40;72.80;;;;;;5075001;28;20207;-85
2021/01/21 07:25:35;;;;;;;0.85;0.70;;;8.40;73.70;;;;;;5074173;28;20248;-84
2021/01/21 07:28:09;;;;;;;1.08;1.00;;;8.40;74.10;;;;;;5075731;28;20226;-85
2021/01/21 07:30:39;;;;;;;2.35;1.10;;;8.40;74.90;;;;;;5080011;28;20227;-84
2021/01/21 07:33:23;;;;;;;1.27;0.90;;;8.50;75.40;;;;;;5076293;28;20269;-85
2021/01/21 07:35:51;;;;;;;1.80;1.13;;;8.50;75.20;;;;;;5089005;28;20210;-84
2021/01/21 07:38:46;;;;;;;1.10;1.00;;;8.40;76.20;;;;;;5087747;28;20200;-84
2021/01/21 07:41:53;;;;;;;0.85;0.82;;;8.40;76.00;;;;;;5090498;28;20203;-85
2021/01/21 07:44:20;;;;;;;1.10;0.90;;;8.50;76.10;;;;;;5090753;28;20285;-85
2021/01/21 07:46:47;;;;;;;0.93;0.90;;;8.50;76.50;;;;;;5090584;28;20202;-85
2021/01/21 07:49:24;;;;;;;1.15;1.05;;;8.50;76.70;;;;;;5094261;28;20199;-86
2021/01/21 07:52:02;;;;;;;0.93;0.88;;;8.50;76.60;;;;;;5095242;28;20281;-85
2021/01/21 07:54:30;;;;;;;1.40;0.90;;;8.60;76.10;;;;;;5092134;28;20309;-84
2021/01/21 07:56:57;;;;;;;1.27;1.17;;;8.50;76.00;;;;;;5077643;28;20698;-83
2021/01/21 07:59:24;;;;;;;0.90;0.90;;;8.60;76.70;;;;;;5082025;28;20255;-84
2021/01/21 08:01:58;;;;;;;1.00;0.90;;;8.60;76.70;;;;;;5091680;28;20887;-85
2021/01/21 08:04:25;;;;;;;1.38;1.05;;;8.70;76.80;;;;;;5092939;28;20210;-84
2021/01/21 08:06:55;;;;;;;2.95;1.02;;;8.80;76.60;;;;;;5091799;28;20202;-84
2021/01/21 08:09:23;;;;;;;2.17;1.00;;;8.80;76.70;;;;;;5092618;28;20534;-84
2021/01/21 08:11:53;;;;;;;2.30;1.33;;;8.90;76.70;;;;;;5079299;28;20654;-84
2021/01/21 08:14:20;;;;;;;1.90;1.20;;;8.90;76.60;;;;;;5080731;28;21203;-85
2021/01/21 08:16:48;;;;;;;1.23;0.90;;;9.00;76.70;;;;;;5088695;28;20206;-85
2021/01/21 08:19:15;;;;;;;1.30;1.20;;;9.10;76.10;;;;;;5090375;28;20609;-85
2021/01/21 08:21:41;;;;;;;1.20;1.00;;;9.20;76.40;;;;;;5092879;28;21083;-84
2021/01/21 08:24:08;;;;;;;0.90;0.87;;;9.30;76.00;;;;;;5092257;28;20616;-84
2021/01/21 08:26:37;;;;;;;5.10;1.10;;;9.40;75.90;;;;;;5082625;28;20625;-85
2021/01/21 08:29:09;;;;;;;1.10;1.00;;;9.50;76.40;;;;;;5082302;28;20640;-84
2021/01/21 08:31:41;;;;;;;1.95;0.90;;;9.50;76.20;;;;;;5083664;28;20689;-85
2021/01/21 08:34:14;;;;;;;2.40;0.90;;;9.50;76.30;;;;;;5084503;28;20268;-83
2021/01/21 08:36:41;;;;;;;1.20;1.10;;;9.40;77.00;;;;;;5090300;28;20679;-84
2021/01/21 08:39:11;;;;;;;1.48;1.10;;;9.40;77.10;;;;;;5092912;28;20624;-83
2021/01/21 08:41:40;;;;;;;0.77;0.77;;;9.40;77.60;;;;;;5091188;28;20217;-83
2021/01/21 08:44:07;;;;;;;0.90;0.90;;;9.40;77.80;;;;;;5090365;28;20678;-84
2021/01/21 08:46:33;;;;;;;1.07;1.00;;;9.40;77.60;;;;;;5093794;28;20597;-84
2021/01/21 08:49:09;;;;;;;1.30;1.20;;;9.50;77.70;;;;;;5076370;28;20727;-83
2021/01/21 08:51:38;;;;;;;1.10;1.00;;;9.50;77.90;;;;;;5074966;28;20623;-83
2021/01/21 08:54:18;;;;;;;1.10;1.00;;;9.50;78.10;;;;;;5078040;28;20641;-84
2021/01/21 08:57:00;;;;;;;2.83;0.80;;;9.40;77.90;;;;;;5072566;28;20601;-84
2021/01/21 08:59:28;;;;;;;1.50;1.10;;;9.30;77.50;;;;;;5071378;28;20637;-84
2021/01/21 09:01:55;;;;;;;1.17;1.07;;;9.40;77.80;;;;;;5071461;28;20629;-84
2021/01/21 09:04:24;;;;;;;0.80;0.80;;;9.40;77.70;;;;;;5071922;28;20625;-85
2021/01/21 09:06:55;;;;;;;1.13;1.03;;;9.40;78.20;;;;;;5072265;28;20652;-85
2021/01/21 09:09:32;;;;;;;2.73;1.03;;;9.30;77.70;;;;;;5072183;28;20706;-84
2021/01/21 09:12:14;;;;;;;0.90;0.90;;;9.40;78.20;;;;;;5071697;28;20608;-84
2021/01/21 09:14:42;;;;;;;1.27;1.13;;;8.50;76.50;;;;;;5079588;28;21003;-84
2021/01/21 09:17:15;;;;;;;1.43;0.90;;;9.70;77.60;;;;;;5082395;28;20971;-85
2021/01/21 09:19:44;;;;;;;1.30;1.07;;;9.90;77.20;;;;;;5076952;28;20610;-84
2021/01/21 09:22:22;;;;;;;0.77;0.77;;;9.90;76.90;;;;;;5077057;28;20616;-84
2021/01/21 09:25:00;;;;;;;0.73;0.73;;;10.00;75.50;;;;;;5082013;28;20624;-84
2021/01/21 09:27:28;;;;;;;0.73;0.73;;;10.30;76.30;;;;;;5082207;28;20613;-84
2021/01/21 09:30:22;;;;;;;1.17;0.90;;;10.50;74.90;;;;;;5080557;28;20631;-85
2021/01/21 09:32:49;;;;;;;1.43;1.33;;;10.40;75.30;;;;;;5053296;28;20712;-84
2021/01/21 09:35:17;;;;;;;2.40;0.93;;;10.50;75.30;;;;;;5081310;28;20640;-83
2021/01/21 09:37:44;;;;;;;0.80;0.80;;;10.50;75.10;;;;;;5076573;28;20656;-84
2021/01/21 09:40:15;;;;;;;1.80;1.30;;;10.40;75.20;;;;;;5080622;28;20662;-84
2021/01/21 09:42:42;;;;;;;1.73;0.93;;;11.40;77.60;;;;;;5069984;28;20617;-85
2021/01/21 09:45:12;;;;;;;1.53;0.97;;;10.10;76.10;;;;;;5071156;28;20631;-84
2021/01/21 09:47:40;;;;;;;0.97;0.77;;;10.00;76.20;;;;;;5069969;28;20616;-85
2021/01/21 09:50:09;;;;;;;1.37;0.93;;;10.10;77.10;;;;;;5070369;28;20621;-85
2021/01/21 09:52:36;;;;;;;1.10;1.00;;;10.20;77.10;;;;;;5069627;28;20654;-85
2021/01/21 09:55:04;;;;;;;0.70;0.70;;;10.20;77.00;;;;;;5079533;28;20653;-85
2021/01/21 09:57:34;;;;;;;1.50;0.80;;;10.20;76.70;;;;;;5078483;28;21025;-85
2021/01/21 10:00:03;;;;;;;2.00;0.90;;;10.30;77.00;;;;;;5083318;28;20943;-86
2021/01/21 10:02:30;;;;;;;1.37;1.27;;;10.40;77.00;;;;;;5078703;28;21018;-87
2021/01/21 10:04:56;;;;;;;1.70;0.73;;;10.40;77.00;;;;;;5089454;28;20605;-87
2021/01/21 10:07:23;;;;;;;1.03;0.93;;;10.40;77.30;;;;;;5089720;28;20686;-85
2021/01/21 10:09:49;;;;;;;0.80;0.63;;;10.40;77.10;;;;;;5091359;28;20648;-86
2021/01/21 10:12:16;;;;;;;2.20;0.83;;;10.40;77.10;;;;;;5083911;28;20608;-86
2021/01/21 10:14:43;;;;;;;0.70;0.70;;;10.50;77.60;;;;;;5083720;28;21037;-85
2021/01/21 10:17:11;;;;;;;1.00;0.90;;;10.50;77.30;;;;;;5090570;28;20658;-86
2021/01/21 10:19:37;;;;;;;0.80;0.63;;;10.50;76.90;;;;;;5086364;28;20708;-85
2021/01/21 10:22:05;;;;;;;1.23;1.00;;;10.50;77.20;;;;;;5091188;28;20674;-85
2021/01/21 10:24:32;;;;;;;1.33;1.00;;;10.50;77.70;;;;;;5079014;28;20619;-86
2021/01/21 10:26:59;;;;;;;1.33;1.13;;;10.60;77.60;;;;;;5090593;28;20616;-85
2021/01/21 10:29:25;;;;;;;1.17;0.90;;;10.80;78.30;;;;;;5089495;28;20620;-86
2021/01/21 10:31:52;;;;;;;2.77;1.20;;;10.80;77.70;;;;;;5089981;28;20619;-85
2021/01/21 10:34:20;;;;;;;1.10;0.67;;;10.90;77.40;;;;;;5089761;28;20652;-86
2021/01/21 10:36:46;;;;;;;3.17;1.27;;;10.90;76.60;;;;;;5083349;28;20613;-86
2021/01/21 10:39:13;;;;;;;2.80;1.13;;;10.90;76.40;;;;;;5073201;28;20657;-83
2021/01/21 10:41:40;;;;;;;0.70;0.70;;;10.80;76.80;;;;;;5071422;28;20641;-85
2021/01/21 10:44:06;;;;;;;1.07;0.97;;;10.80;76.20;;;;;;5080714;28;20635;-85
2021/01/21 10:46:33;;;;;;;0.77;0.70;;;10.80;76.90;;;;;;5086500;28;20605;-85
2021/01/21 10:49:00;;;;;;;1.90;0.83;;;10.90;77.00;;;;;;5070852;28;20636;-85
2021/01/21 10:51:27;;;;;;;2.00;0.93;;;10.90;77.40;;;;;;5072188;28;21334;-85
2021/01/21 10:53:54;;;;;;;1.00;1.00;;;11.10;78.60;;;;;;5090834;28;20620;-85
2021/01/21 10:56:21;;;;;;;0.77;0.77;;;11.00;81.20;;;;;;5089923;28;20631;-85
2021/01/21 10:58:47;;;;;;;0.90;0.90;;;10.80;83.20;;;;;;5090239;28;20992;-86
2021/01/21 11:01:14;;;;;;;1.20;1.10;;;10.80;85.30;;;;;;5090504;28;20616;-86
2021/01/21 11:03:40;;;;;;;1.70;1.37;;;10.60;82.20;;;;;;5091148;28;20665;-86
2021/01/21 11:06:07;;;;;;;1.23;1.10;;;10.60;83.00;;;;;;5090289;28;20600;-87
2021/01/21 11:08:35;;;;;;;1.00;0.83;;;10.60;81.70;;;;;;5090420;28;20604;-87
2021/01/21 11:11:02;;;;;;;1.03;0.97;;;10.60;81.30;;;;;;5090818;28;20619;-86
2021/01/21 11:13:32;;;;;;;0.80;0.80;;;10.70;82.70;;;;;;5090380;28;20680;-87
2021/01/21 11:15:59;;;;;;;3.23;1.30;;;10.80;82.70;;;;;;5091728;28;20696;-86
2021/01/21 11:18:25;;;;;;;1.50;1.17;;;10.80;83.40;;;;;;5079695;28;20694;-87
2021/01/21 11:20:52;;;;;;;1.00;1.00;;;10.90;83.70;;;;;;5082101;28;20604;-86
2021/01/21 11:23:19;;;;;;;1.93;1.20;;;10.90;83.80;;;;;;5081050;28;20612;-87
2021/01/21 11:25:46;;;;;;;3.87;0.97;;;10.70;83.00;;;;;;5080060;28;20692;-86
2021/01/21 11:28:20;;;;;;;1.03;1.00;;;10.70;82.90;;;;;;5081670;28;20624;-86
2021/01/21 11:31:34;;;;;;;1.40;1.30;;;10.60;82.00;;;;;;5082213;28;20617;-86
2021/01/21 11:34:03;;;;;;;1.60;1.03;;;10.70;82.40;;;;;;5043346;28;20634;-87
2021/01/21 11:36:30;;;;;;;1.20;1.10;;;10.80;82.40;;;;;;5049925;28;20625;-87
2021/01/21 11:38:57;;;;;;;1.10;1.10;;;11.00;82.40;;;;;;5080303;28;20608;-87
2021/01/21 11:41:24;;;;;;;1.50;1.03;;;11.00;81.60;;;;;;5084309;28;20620;-87
2021/01/21 11:43:51;;;;;;;1.63;1.40;;;11.10;81.00;;;;;;5081899;28;20632;-86
2021/01/21 11:46:17;;;;;;;1.73;1.23;;;11.10;80.00;;;;;;5083691;28;20594;-87
2021/01/21 11:48:44;;;;;;;1.57;1.10;;;11.40;79.50;;;;;;5082207;28;20712;-87
2021/01/21 11:51:11;;;;;;;1.23;1.03;;;11.40;79.10;;;;;;5084501;28;20727;-87
2021/01/21 11:53:38;;;;;;;1.20;1.20;;;11.40;78.90;;;;;;5082105;28;20720;-88
2021/01/21 11:56:07;;;;;;;1.40;1.30;;;11.30;77.90;;;;;;5082233;28;20702;-88
2021/01/21 11:58:41;;;;;;;1.60;0.90;;;11.50;78.40;;;;;;5083418;28;20714;-86
2021/01/21 12:01:08;;;;;;;1.60;1.30;;;11.60;78.20;;;;;;5082310;28;20623;-88
2021/01/21 12:03:34;;;;;;;2.77;1.97;;;11.60;77.90;;;;;;5081161;28;21208;-87
2021/01/21 12:06:03;;;;;;;1.37;1.27;;;11.80;78.10;;;;;;5081980;28;20601;-87
2021/01/21 12:08:34;;;;;;;1.27;1.17;;;11.90;77.50;;;;;;5082219;28;21263;-85
2021/01/21 12:11:03;;;;;;;2.40;1.20;;;11.90;76.70;;;;;;5082424;28;20613;-85
2021/01/21 12:13:35;;;;;;;2.90;1.70;;;11.90;77.40;;;;;;5082370;28;20617;-86
2021/01/21 12:16:07;;;;;;;1.00;1.00;;;11.90;76.20;;;;;;5081262;28;20649;-86
2021/01/21 12:18:34;;;;;;;1.20;1.10;;;12.10;76.60;;;;;;5082177;28;20609;-86
2021/01/21 12:21:01;;;;;;;1.23;1.07;;;12.10;76.60;;;;;;5083785;28;21100;-86
2021/01/21 12:23:27;;;;;;;3.60;1.50;;;12.00;76.10;;;;;;5082049;28;20658;-86
2021/01/21 12:25:54;;;;;;;1.80;1.47;;;12.10;76.40;;;;;;5082517;28;20618;-86
2021/01/21 12:28:21;;;;;;;1.63;1.47;;;12.40;76.90;;;;;;5080326;28;20618;-87
2021/01/21 12:30:49;;;;;;;1.43;1.23;;;12.30;75.80;;;;;;5087544;28;21252;-87
2021/01/21 12:33:16;;;;;;;3.93;1.23;;;12.20;75.60;;;;;;5087507;28;20610;-88
2021/01/21 12:35:43;;;;;;;2.33;1.37;;;12.40;76.40;;;;;;5093151;28;20688;-88
2021/01/21 12:38:10;;;;;;;1.57;0.90;;;12.30;76.00;;;;;;5075605;28;20667;-88
2021/01/21 12:40:36;;;;;;;0.93;0.93;;;12.20;75.30;;;;;;5074658;28;20634;-88
2021/01/21 12:43:03;;;;;;;1.10;1.03;;;12.00;75.60;;;;;;5074613;28;20623;-87
2021/01/21 12:45:30;;;;;;;1.40;1.30;;;12.20;76.50;;;;;;5074087;28;20603;-87
2021/01/21 12:47:57;;;;;;;1.47;0.97;;;12.30;76.90;;;;;;5073426;28;20597;-86
2021/01/21 12:50:24;;;;;;;2.40;1.20;;;12.60;76.70;;;;;;5072648;28;21110;-87
2021/01/21 12:52:50;;;;;;;1.90;1.27;;;12.20;75.10;;;;;;5082921;28;20200;-86
2021/01/21 12:55:17;;;;;;;4.03;0.97;;;12.00;76.10;;;;;;5082923;28;20637;-86
2021/01/21 12:57:47;;;;;;;1.20;1.10;;;11.90;75.30;;;;;;5085819;28;20636;-87
2021/01/21 13:00:15;;;;;;;1.00;1.00;;;12.20;77.70;;;;;;5073163;28;20609;-85
2021/01/21 13:02:42;;;;;;;1.37;1.27;;;12.20;77.20;;;;;;5092645;28;20633;-86